Time;durP1;ratioP1;P1;durP2;ratioP2;P2;SDS_P1;SDS_P2;PMS_P1;PMS_P2;Temp;Humidity;BMP_temperature;BMP_pressure;BME280_temperature;BME280_humidity;BME280_pressure;Samples;Min_cycle;Max_cycle;Signal;HPM_P1;HPM_P2
2021/01/07 00:00:52;;;;;;;32.35;13.93;;;;;;;-0.37;57.14;99511.13;10423428;28;20372;-55
2021/01/07 00:05:54;;;;;;;31.08;12.38;;;;;;;-0.26;57.09;99514.09;10423363;28;20049;-54
2021/01/07 00:10:56;;;;;;;43.35;17.58;;;;;;;-0.35;56.74;99506.75;10424680;28;20140;-57
2021/01/07 00:15:58;;;;;;;41.75;18.63;;;;;;;-0.42;57.20;99500.16;10425353;28;20046;-55
2021/01/07 00:21:01;;;;;;;42.38;14.95;;;;;;;-0.41;57.11;99492.34;10423445;28;20394;-55
2021/01/07 00:26:02;;;;;;;61.80;22.48;;;;;;;-0.36;56.99;99492.16;10422050;28;20079;-56
2021/01/07 00:31:05;;;;;;;50.33;18.02;;;;;;;-0.54;57.19;99481.72;10422476;28;20053;-56
2021/01/07 00:36:07;;;;;;;36.15;14.02;;;;;;;-0.51;57.65;99480.75;10421088;28;20045;-56
2021/01/07 00:41:09;;;;;;;42.73;16.17;;;;;;;-0.53;57.30;99482.53;10438888;28;20049;-55
2021/01/07 00:46:12;;;;;;;37.95;14.52;;;;;;;-0.59;57.44;99475.06;10421505;28;20057;-60
2021/01/07 00:51:15;;;;;;;27.33;12.40;;;;;;;-0.55;57.24;99469.72;10427031;28;20479;-54
2021/01/07 00:56:18;;;;;;;25.83;9.82;;;;;;;-0.50;57.57;99477.25;10436404;28;20296;-55
2021/01/07 01:01:23;;;;;;;27.80;10.80;;;;;;;-0.51;57.63;99471.25;10436336;28;20056;-55
2021/01/07 01:06:30;;;;;;;31.27;13.57;;;;;;;-0.59;57.82;99473.31;10420068;28;20064;-55
2021/01/07 01:11:38;;;;;;;28.52;11.32;;;;;;;-0.56;57.84;99472.34;10421791;28;20418;-55
2021/01/07 01:16:40;;;;;;;25.52;11.05;;;;;;;-0.53;58.07;99467.88;10422097;28;20103;-53
2021/01/07 01:21:42;;;;;;;24.75;10.65;;;;;;;-0.41;57.93;99470.84;10420762;28;20401;-54
2021/01/07 01:26:45;;;;;;;33.13;11.57;;;;;;;-0.30;57.46;99458.31;10419320;28;20061;-55
2021/01/07 01:31:47;;;;;;;22.30;10.00;;;;;;;-0.28;57.78;99448.72;10419087;28;20045;-55
2021/01/07 01:36:49;;;;;;;23.48;10.57;;;;;;;-0.54;57.44;99449.91;10420450;28;20476;-55
2021/01/07 01:41:51;;;;;;;22.70;9.32;;;;;;;-0.58;58.05;99451.78;10418872;28;20045;-57
2021/01/07 01:46:54;;;;;;;27.17;11.75;;;;;;;-0.48;57.84;99460.78;10418665;28;20478;-55
2021/01/07 01:51:56;;;;;;;28.10;12.82;;;;;;;-0.39;57.61;99444.06;10419773;28;20482;-55
2021/01/07 01:56:58;;;;;;;28.70;11.82;;;;;;;-0.38;57.20;99439.72;10419739;28;20053;-55
2021/01/07 02:02:05;;;;;;;22.60;9.50;;;;;;;-0.53;57.23;99452.38;10418478;28;20423;-55
2021/01/07 02:07:09;;;;;;;23.42;10.77;;;;;;;-0.61;57.80;99444.16;10419252;28;20110;-55
2021/01/07 02:12:11;;;;;;;25.55;9.95;;;;;;;-0.66;57.59;99440.94;10417734;28;20065;-54
2021/01/07 02:17:15;;;;;;;27.10;9.73;;;;;;;-0.66;57.92;99450.44;10418903;28;20044;-54
2021/01/07 02:22:17;;;;;;;25.05;10.18;;;;;;;-0.60;57.56;99451.00;10417733;28;20064;-54
2021/01/07 02:27:19;;;;;;;25.98;11.45;;;;;;;-0.64;57.33;99453.78;10417358;28;20060;-54
2021/01/07 02:32:21;;;;;;;24.63;11.68;;;;;;;-0.82;57.82;99450.25;10418558;28;20060;-54
2021/01/07 02:37:23;;;;;;;29.25;11.10;;;;;;;-0.98;58.13;99450.91;10417392;28;20059;-55
2021/01/07 02:42:25;;;;;;;41.90;16.17;;;;;;;-1.03;58.02;99452.81;10418183;28;20064;-54
2021/01/07 02:47:27;;;;;;;33.58;13.35;;;;;;;-1.06;57.90;99442.63;10417818;28;20045;-56
2021/01/07 02:52:29;;;;;;;29.92;11.50;;;;;;;-1.18;58.47;99450.88;10432618;28;20057;-55
2021/01/07 02:57:31;;;;;;;30.15;13.02;;;;;;;-1.20;58.40;99440.63;10416894;28;20045;-59
2021/01/07 03:02:33;;;;;;;32.55;14.18;;;;;;;-1.18;58.62;99446.53;10418341;28;20061;-54
2021/01/07 03:07:35;;;;;;;29.15;11.95;;;;;;;-1.04;58.28;99437.41;10422372;28;20042;-53
2021/01/07 03:12:37;;;;;;;28.85;12.00;;;;;;;-1.04;58.11;99429.69;10426960;28;20060;-55
2021/01/07 03:17:39;;;;;;;26.00;7.85;;;;;;;-1.05;58.15;99433.13;10424211;28;20056;-54
2021/01/07 03:22:43;;;;;;;33.10;11.73;;;;;;;-1.21;58.23;99432.94;10424473;28;20057;-54
2021/01/07 03:27:44;;;;;;;21.52;8.85;;;;;;;-1.27;58.40;99430.63;10425682;28;20053;-55
2021/01/07 03:32:46;;;;;;;28.45;10.00;;;;;;;-1.31;58.40;99421.34;10424563;28;20045;-54
2021/01/07 03:37:48;;;;;;;31.02;11.45;;;;;;;-1.27;58.29;99418.56;10423707;28;20042;-54
2021/01/07 03:42:50;;;;;;;30.23;9.43;;;;;;;-1.27;58.42;99426.28;10425515;28;20068;-54
2021/01/07 03:47:52;;;;;;;23.60;9.43;;;;;;;-1.28;58.34;99413.47;10425323;28;20056;-54
2021/01/07 03:52:54;;;;;;;21.90;8.43;;;;;;;-1.37;58.56;99406.13;10426785;28;20065;-54
2021/01/07 03:57:56;;;;;;;24.83;9.80;;;;;;;-1.47;58.63;99408.25;10428331;28;20049;-61
2021/01/07 04:02:57;;;;;;;29.48;10.68;;;;;;;-1.43;58.61;99405.47;10423742;28;20053;-54
2021/01/07 04:08:00;;;;;;;23.52;8.90;;;;;;;-1.41;58.78;99401.09;10422795;28;20050;-55
2021/01/07 04:13:02;;;;;;;24.00;9.13;;;;;;;-1.39;58.46;99398.44;10422668;28;20054;-54
2021/01/07 04:18:04;;;;;;;24.52;10.40;;;;;;;-1.31;57.95;99390.41;10423124;28;20470;-54
2021/01/07 04:23:06;;;;;;;24.30;9.60;;;;;;;-1.40;58.36;99397.59;10424647;28;20390;-54
2021/01/07 04:28:10;;;;;;;22.00;9.07;;;;;;;-1.45;58.39;99386.66;10423308;28;20370;-54
2021/01/07 04:33:12;;;;;;;;;;;;;;;-1.42;58.60;99391.69;10423405;28;20080;-54
2021/01/07 04:38:14;;;;;;;26.20;10.30;;;;;;;-1.35;58.24;99388.84;10423097;28;20358;-55
2021/01/07 04:43:16;;;;;;;29.00;12.15;;;;;;;-1.16;57.93;99387.16;10421729;28;20360;-59
2021/01/07 04:48:18;;;;;;;25.10;11.02;;;;;;;-1.16;57.76;99384.59;10425621;28;20045;-51
2021/01/07 04:53:21;;;;;;;29.95;11.48;;;;;;;-1.19;57.84;99376.97;10438210;28;20152;-55
2021/01/07 04:58:23;;;;;;;28.10;11.13;;;;;;;-1.24;58.13;99373.75;10420419;28;20061;-57
2021/01/07 05:03:25;;;;;;;30.65;10.93;;;;;;;-1.24;58.11;99371.16;10421007;28;20053;-54
2021/01/07 05:08:28;;;;;;;30.13;10.70;;;;;;;-1.28;58.24;99369.63;10424989;28;20056;-57
2021/01/07 05:13:30;;;;;;;27.63;10.55;;;;;;;-1.43;57.97;99378.84;10421329;28;20418;-56
2021/01/07 05:18:31;;;;;;;35.08;12.40;;;;;;;-1.38;58.10;99376.91;10420202;28;20037;-54
2021/01/07 05:23:34;;;;;;;31.45;11.82;;;;;;;-1.27;57.60;99366.97;10419625;28;20496;-54
2021/01/07 05:28:36;;;;;;;34.80;13.70;;;;;;;-1.28;57.89;99369.63;10419361;28;20041;-55
2021/01/07 05:33:40;;;;;;;40.63;13.63;;;;;;;-1.28;57.79;99369.63;10419182;28;20049;-54
2021/01/07 05:38:42;;;;;;;;;;;;;;;-1.26;57.75;99360.94;10419304;28;20463;-53
2021/01/07 05:43:44;;;;;;;29.40;11.82;;;;;;;-1.31;57.62;99370.59;10436764;28;20444;-54
2021/01/07 05:48:45;;;;;;;32.08;11.98;;;;;;;-1.35;57.73;99368.22;10419545;28;20045;-55
2021/01/07 05:53:48;;;;;;;28.85;11.52;;;;;;;-1.22;57.90;99364.22;10418918;28;20055;-60
2021/01/07 05:58:52;;;;;;;32.20;12.27;;;;;;;-1.23;57.51;99363.38;10419386;28;20061;-54
2021/01/07 06:03:54;;;;;;;;;;;;;;;-1.16;57.78;99366.53;10418821;28;20107;-53
2021/01/07 06:08:57;;;;;;;30.98;10.98;;;;;;;-1.19;57.45;99364.09;10433976;28;20365;-54
2021/01/07 06:13:58;;;;;;;32.40;10.18;;;;;;;-1.39;57.46;99372.66;10420987;28;20064;-59
2021/01/07 06:19:35;;;;;;;32.95;12.07;;;;;;;-1.40;57.95;99366.66;10422616;28;20061;-55
2021/01/07 06:24:40;;;;;;;32.90;11.18;;;;;;;-1.36;57.57;99371.69;10414781;28;20071;-56
2021/01/07 06:29:41;;;;;;;28.73;11.63;;;;;;;-1.30;57.98;99376.59;10417257;28;20061;-54
2021/01/07 06:34:45;;;;;;;26.73;12.27;;;;;;;-1.24;57.56;99377.16;10418153;28;20053;-53
2021/01/07 06:39:49;;;;;;;26.08;9.25;;;;;;;-1.31;57.21;99380.06;10432892;28;20038;-54
2021/01/07 06:44:53;;;;;;;30.70;11.13;;;;;;;-1.31;57.55;99380.91;10416759;28;20049;-54
2021/01/07 06:49:55;;;;;;;32.20;13.70;;;;;;;-1.13;57.29;99387.03;10417158;28;20068;-56
2021/01/07 06:54:58;;;;;;;27.73;11.18;;;;;;;-0.90;57.03;99391.22;10432374;28;20049;-54
2021/01/07 07:00:01;;;;;;;36.28;13.05;;;;;;;-0.89;57.10;99376.56;10416864;28;20058;-54
2021/01/07 07:05:05;;;;;;;31.73;12.32;;;;;;;-0.98;57.18;99394.13;10417006;28;20045;-54
2021/01/07 07:10:42;;;;;;;33.83;11.63;;;;;;;-0.93;57.05;99387.00;10418274;28;20049;-55
2021/01/07 07:15:47;;;;;;;25.75;11.38;;;;;;;-0.91;56.56;99373.22;10415328;28;20156;-53
2021/01/07 07:20:49;;;;;;;29.30;13.18;;;;;;;-0.87;56.44;99379.91;10417975;28;20114;-54
2021/01/07 07:25:52;;;;;;;25.02;9.63;;;;;;;-0.73;56.64;99373.25;10419120;28;20512;-57
2021/01/07 07:30:54;;;;;;;27.77;11.30;;;;;;;-0.77;56.48;99379.47;10416428;28;20422;-54
2021/01/07 07:35:56;;;;;;;29.30;11.77;;;;;;;-0.78;56.69;99387.25;10417061;28;20055;-55
2021/01/07 07:41:04;;;;;;;27.35;11.57;;;;;;;-0.73;56.30;99377.59;10416818;28;20123;-55
2021/01/07 07:46:08;;;;;;;20.90;8.48;;;;;;;-0.61;56.09;99365.88;10431422;28;20148;-55
2021/01/07 07:51:11;;;;;;;35.20;12.93;;;;;;;-0.57;56.30;99368.25;10432100;28;20060;-55
2021/01/07 07:56:21;;;;;;;26.57;10.13;;;;;;;-0.73;56.08;99370.66;10421519;28;20057;-54
2021/01/07 08:01:34;;;;;;;26.90;10.18;;;;;;;-0.70;56.23;99367.97;10423497;28;20073;-57
2021/01/07 08:06:37;;;;;;;28.90;12.73;;;;;;;-0.65;56.40;99367.72;10423508;28;20045;-54
2021/01/07 08:11:47;;;;;;;27.90;12.27;;;;;;;-0.57;56.01;99363.06;10424350;28;20068;-55
2021/01/07 08:16:55;;;;;;;39.08;13.75;;;;;;;-0.55;56.03;99360.44;10422951;28;20513;-54
2021/01/07 08:21:57;;;;;;;35.78;13.90;;;;;;;-0.54;56.02;99355.19;10423238;28;20045;-54
2021/01/07 08:27:10;;;;;;;32.53;12.75;;;;;;;-0.60;55.84;99349.47;10421897;28;20045;-55
2021/01/07 08:32:17;;;;;;;38.65;13.43;;;;;;;-0.61;56.41;99343.47;10423017;28;20075;-55
2021/01/07 08:37:21;;;;;;;24.98;12.55;;;;;;;-0.52;55.91;99349.97;10422076;28;20045;-54
2021/01/07 08:42:33;;;;;;;30.60;13.35;;;;;;;-0.59;55.78;99339.06;10422043;28;20080;-53
2021/01/07 08:47:36;;;;;;;33.92;13.75;;;;;;;-0.56;56.32;99332.94;10422439;28;20067;-56
2021/01/07 08:52:51;;;;;;;33.90;14.88;;;;;;;-0.44;56.17;99321.22;10422020;28;20061;-53
2021/01/07 08:58:02;;;;;;;42.58;14.40;;;;;;;-0.32;55.80;99320.63;10421328;28;20041;-55
2021/01/07 09:03:05;;;;;;;34.15;14.10;;;;;;;-0.45;56.10;99311.78;10421379;28;20079;-54
2021/01/07 09:08:07;;;;;;;36.85;14.95;;;;;;;-0.30;56.23;99306.75;10420044;28;20057;-55
2021/01/07 09:13:17;;;;;;;42.60;15.82;;;;;;;-0.16;56.03;99305.25;10421283;28;20271;-55
2021/01/07 09:18:20;;;;;;;44.38;14.75;;;;;;;-0.24;55.62;99303.03;10421736;28;20132;-54
2021/01/07 09:23:21;;;;;;;44.93;16.57;;;;;;;-0.28;56.17;99296.31;10420202;28;20148;-55
2021/01/07 09:28:23;;;;;;;41.20;14.35;;;;;;;-0.24;55.64;99287.53;10419869;28;20323;-55
2021/01/07 09:33:26;;;;;;;41.13;16.08;;;;;;;-0.40;55.80;99286.56;10419854;28;20542;-54
2021/01/07 09:38:28;;;;;;;38.08;14.60;;;;;;;-0.46;55.71;99282.56;10419024;28;20053;-54
2021/01/07 09:43:33;;;;;;;39.08;16.50;;;;;;;-0.56;56.31;99279.53;10435044;28;20061;-54
2021/01/07 09:48:36;;;;;;;35.72;15.18;;;;;;;-0.35;56.21;99280.28;10419699;28;20059;-54
2021/01/07 09:53:38;;;;;;;36.28;15.02;;;;;;;0.05;56.23;99274.97;10419526;28;20151;-54
2021/01/07 09:58:39;;;;;;;48.22;16.55;;;;;;;0.53;56.14;99268.25;10422046;28;20069;-54
2021/01/07 10:03:42;;;;;;;36.65;14.70;;;;;;;1.35;55.50;99263.88;10421021;28;20132;-56
2021/01/07 10:08:43;;;;;;;34.95;13.50;;;;;;;2.26;55.50;99267.44;10419463;28;20051;-55
2021/01/07 10:13:46;;;;;;;48.17;16.40;;;;;;;3.08;54.27;99259.97;10418824;28;20057;-56
2021/01/07 10:18:48;;;;;;;39.35;15.00;;;;;;;3.58;53.61;99253.41;10418451;28;20041;-55
2021/01/07 10:23:52;;;;;;;36.67;16.00;;;;;;;3.78;53.26;99257.31;10417327;28;20061;-54
2021/01/07 10:28:53;;;;;;;39.47;15.60;;;;;;;3.86;53.11;99247.25;10417677;28;20056;-56
2021/01/07 10:33:56;;;;;;;32.65;14.10;;;;;;;3.72;53.87;99255.94;10433330;28;20053;-58
2021/01/07 10:38:59;;;;;;;41.78;15.60;;;;;;;3.68;53.55;99247.50;10417324;28;20045;-53
2021/01/07 10:44:01;;;;;;;39.33;16.75;;;;;;;3.40;53.08;99235.44;10417031;28;20059;-55
2021/01/07 10:49:04;;;;;;;42.17;17.17;;;;;;;2.96;52.30;99235.63;10418292;28;20057;-55
2021/01/07 10:54:09;;;;;;;39.50;17.80;;;;;;;2.54;52.15;99235.50;10417988;28;20068;-55
2021/01/07 10:59:28;;;;;;;40.25;16.90;;;;;;;2.22;51.93;99244.38;10416941;28;20064;-54
2021/01/07 11:05:11;;;;;;;45.35;18.83;;;;;;;2.10;52.14;99235.53;10417690;28;20467;-53
2021/01/07 11:10:15;;;;;;;57.33;21.33;;;;;;;2.07;52.42;99246.91;10408242;28;20401;-53
2021/01/07 11:15:19;;;;;;;;;;;;;;;1.65;51.94;99239.81;10432482;28;20049;-55
2021/01/07 11:20:26;;;;;;;42.75;20.02;;;;;;;1.10;52.82;99233.31;10416454;28;19924;-54
2021/01/07 11:25:29;;;;;;;53.35;22.38;;;;;;;0.93;53.03;99222.22;10417002;28;20053;-54
2021/01/07 11:30:31;;;;;;;60.28;21.27;;;;;;;0.75;52.65;99222.25;10420385;28;20144;-53
2021/01/07 11:35:34;;;;;;;46.10;19.38;;;;;;;0.53;52.94;99212.19;10441003;28;20529;-54
2021/01/07 11:40:48;;;;;;;53.20;19.20;;;;;;;0.31;53.02;99222.81;10424211;28;20045;-55
2021/01/07 11:45:55;;;;;;;52.17;19.15;;;;;;;0.15;53.03;99221.88;10424851;28;20060;-54
2021/01/07 11:51:04;;;;;;;45.85;20.23;;;;;;;0.11;52.86;99212.63;10441431;28;20047;-54
2021/01/07 11:56:08;;;;;;;38.03;16.42;;;;;;;0.13;52.98;99198.72;10438898;28;20393;-54
2021/01/07 12:01:10;;;;;;;50.53;18.77;;;;;;;-0.06;52.92;99192.81;10425820;28;20173;-52
2021/01/07 12:06:17;;;;;;;52.53;19.63;;;;;;;-0.30;53.46;99197.44;10425002;28;20422;-53
2021/01/07 12:11:27;;;;;;;37.78;14.27;;;;;;;-0.43;53.53;99204.94;10425036;28;20466;-55
2021/01/07 12:16:34;;;;;;;48.72;20.30;;;;;;;-0.43;53.78;99215.28;10423220;28;20041;-53
2021/01/07 12:21:38;;;;;;;54.13;19.73;;;;;;;-0.39;53.55;99210.78;10422292;28;20053;-54
2021/01/07 12:26:41;;;;;;;37.75;16.92;;;;;;;-0.48;53.72;99210.31;10422569;28;20152;-54
2021/01/07 12:31:43;;;;;;;37.97;14.82;;;;;;;-0.57;54.02;99217.66;10422190;28;20049;-58
2021/01/07 12:37:04;;;;;;;43.72;17.77;;;;;;;-0.61;54.07;99208.41;10421948;28;20393;-55
2021/01/07 12:42:12;;;;;;;45.65;17.73;;;;;;;-0.56;53.98;99204.66;10422994;28;20099;-54
2021/01/07 12:47:14;;;;;;;40.30;15.00;;;;;;;-0.55;54.00;99203.78;10423536;28;20082;-55
2021/01/07 12:52:16;;;;;;;40.38;16.08;;;;;;;-0.57;54.17;99197.00;10438013;28;20517;-54
2021/01/07 12:57:21;;;;;;;34.97;14.75;;;;;;;-0.76;54.20;99203.03;10423652;28;20103;-53
2021/01/07 13:02:31;;;;;;;47.28;17.98;;;;;;;-0.87;54.55;99214.75;10423326;28;20067;-54
2021/01/07 13:07:34;;;;;;;44.17;17.58;;;;;;;-0.85;54.60;99208.63;10421319;28;20104;-54
2021/01/07 13:12:40;;;;;;;59.15;20.55;;;;;;;-0.69;54.16;99201.00;10420354;28;20490;-55
2021/01/07 13:17:42;;;;;;;54.35;21.38;;;;;;;-0.70;54.36;99199.34;10420539;28;20045;-55
2021/01/07 13:22:46;;;;;;;57.85;20.23;;;;;;;-0.70;54.56;99209.66;10421869;28;20055;-54
2021/01/07 13:27:49;;;;;;;56.78;19.63;;;;;;;-0.65;54.59;99205.09;10420464;28;20552;-54
2021/01/07 13:32:51;;;;;;;63.97;21.27;;;;;;;-0.63;54.71;99211.03;10419887;28;20058;-54
2021/01/07 13:37:54;;;;;;;52.33;21.53;;;;;;;-0.52;54.31;99213.97;10419786;28;20303;-54
2021/01/07 13:43:01;;;;;;;54.90;23.07;;;;;;;-0.68;54.60;99200.09;10436309;28;20056;-54
2021/01/07 13:48:03;;;;;;;44.70;20.67;;;;;;;-0.73;54.96;99207.22;10435603;28;20295;-56
2021/01/07 13:53:07;;;;;;;51.60;19.30;;;;;;;-0.69;55.07;99211.31;10418490;28;20153;-54
2021/01/07 13:58:12;;;;;;;41.45;18.33;;;;;;;-0.54;54.92;99208.03;10418374;28;20053;-55
2021/01/07 14:03:16;;;;;;;38.72;17.52;;;;;;;-0.49;54.73;99210.41;10419434;28;20079;-55
2021/01/07 14:08:23;;;;;;;40.15;17.10;;;;;;;-0.46;55.07;99210.25;10434659;28;20486;-54
2021/01/07 14:13:27;;;;;;;37.20;16.13;;;;;;;-0.32;55.17;99210.41;10418835;28;20049;-55
2021/01/07 14:18:29;;;;;;;39.03;16.15;;;;;;;-0.28;54.86;99213.66;10419857;28;20050;-55
2021/01/07 14:23:31;;;;;;;42.13;16.98;;;;;;;-0.34;55.16;99209.66;10419051;28;20045;-57
2021/01/07 14:28:42;;;;;;;51.08;16.52;;;;;;;-0.43;55.37;99199.78;10417755;28;20474;-55
2021/01/07 14:33:45;;;;;;;41.00;16.25;;;;;;;-0.54;55.49;99196.88;10418324;28;20585;-54
2021/01/07 14:38:49;;;;;;;37.75;15.20;;;;;;;-0.58;55.15;99196.19;10417927;28;20077;-54
2021/01/07 14:43:54;;;;;;;35.92;14.32;;;;;;;-0.63;55.22;99198.13;10417383;28;20474;-55
2021/01/07 14:49:00;;;;;;;40.70;15.05;;;;;;;-0.67;55.46;99191.44;10419918;28;20049;-56
2021/01/07 14:54:06;;;;;;;36.30;13.45;;;;;;;-0.72;55.45;99183.06;10418682;28;20072;-54
2021/01/07 14:59:24;;;;;;;32.75;13.98;;;;;;;-0.75;55.76;99185.81;10414070;28;20527;-53
2021/01/07 15:04:31;;;;;;;30.40;12.43;;;;;;;-0.82;55.68;99176.69;10420390;28;20045;-54
2021/01/07 15:09:41;;;;;;;32.67;12.90;;;;;;;-0.86;55.81;99172.56;10427901;28;20060;-58
2021/01/07 15:14:58;;;;;;;35.28;15.25;;;;;;;-0.88;55.99;99166.66;10465700;28;20072;-54
2021/01/07 15:20:06;;;;;;;32.92;14.07;;;;;;;-0.85;55.99;99158.78;10465588;28;20048;-55
2021/01/07 15:25:13;;;;;;;40.53;15.60;;;;;;;-0.88;55.74;99169.22;10469533;28;20052;-56
2021/01/07 15:30:23;;;;;;;46.10;19.35;;;;;;;-0.96;55.88;99156.69;10469980;28;20059;-54
2021/01/07 15:35:27;;;;;;;50.45;18.95;;;;;;;-0.90;56.04;99158.97;10440211;28;20566;-55
2021/01/07 15:40:44;;;;;;;44.45;15.88;;;;;;;-0.97;56.26;99158.44;10438934;28;20063;-54
2021/01/07 15:46:11;;;;;;;45.25;18.42;;;;;;;-1.06;56.25;99152.88;10458121;28;20473;-56
2021/01/07 15:51:33;;;;;;;58.85;21.75;;;;;;;-1.05;56.26;99150.19;10460283;28;20481;-53
2021/01/07 15:56:55;;;;;;;56.83;22.17;;;;;;;-0.89;55.93;99145.19;10461061;28;20041;-54
2021/01/07 16:02:00;;;;;;;53.33;20.77;;;;;;;-0.78;55.79;99136.91;10459610;28;20501;-53
2021/01/07 16:07:03;;;;;;;63.72;23.42;;;;;;;-0.81;55.55;99131.91;10459964;28;20135;-53
2021/01/07 16:12:08;;;;;;;63.25;23.05;;;;;;;-0.93;56.16;99121.25;10459996;28;20561;-54
2021/01/07 16:17:11;;;;;;;65.05;22.77;;;;;;;-0.85;56.42;99117.47;10461152;28;20063;-57
2021/01/07 16:22:19;;;;;;;63.45;22.67;;;;;;;-0.85;56.18;99122.63;10461679;28;20045;-53
2021/01/07 16:27:23;;;;;;;55.70;21.60;;;;;;;-1.03;56.51;99119.19;10459062;28;20210;-55
2021/01/07 16:32:26;;;;;;;42.45;16.73;;;;;;;-1.07;56.46;99115.91;10457594;28;20053;-56
2021/01/07 16:37:30;;;;;;;34.22;14.63;;;;;;;-1.11;56.73;99110.97;10454345;28;20126;-54
2021/01/07 16:42:32;;;;;;;52.45;18.70;;;;;;;-1.19;56.93;99119.06;10456841;28;20067;-55
2021/01/07 16:47:34;;;;;;;46.92;18.52;;;;;;;-1.12;56.43;99123.03;10456345;28;20524;-55
2021/01/07 16:52:39;;;;;;;47.87;17.50;;;;;;;-1.12;56.60;99124.78;10456999;28;20136;-53
2021/01/07 16:57:41;;;;;;;51.13;20.92;;;;;;;-1.07;56.71;99131.41;10456496;28;20122;-54
2021/01/07 17:02:45;;;;;;;37.45;14.27;;;;;;;-1.03;56.33;99129.50;10431508;28;769009;-54
2021/01/07 17:07:48;;;;;;;34.80;14.48;;;;;;;-1.10;56.92;99128.97;10458511;28;20049;-54
2021/01/07 17:12:50;;;;;;;57.47;21.02;;;;;;;-1.17;56.86;99115.53;10458259;28;20203;-53
2021/01/07 17:17:53;;;;;;;60.42;22.52;;;;;;;-1.23;57.07;99120.97;10457599;28;20055;-55
2021/01/07 17:22:54;;;;;;;62.55;23.95;;;;;;;-1.11;57.20;99124.69;10456961;28;20059;-55
2021/01/07 17:27:56;;;;;;;70.25;22.08;;;;;;;-0.96;56.69;99111.06;10456274;28;20037;-54
2021/01/07 17:32:59;;;;;;;56.47;19.25;;;;;;;-1.00;56.33;99129.34;10457418;28;20136;-55
2021/01/07 17:38:00;;;;;;;56.70;21.98;;;;;;;-1.08;56.96;99114.22;10456956;28;20469;-54
2021/01/07 17:43:02;;;;;;;62.45;23.27;;;;;;;-1.07;56.84;99108.19;10456548;28;20064;-54
2021/01/07 17:48:06;;;;;;;51.78;19.02;;;;;;;-0.99;56.74;99106.06;10456238;28;20041;-55
2021/01/07 17:53:07;;;;;;;52.50;19.35;;;;;;;-0.88;56.58;99113.28;10457035;28;20052;-55
2021/01/07 17:58:09;;;;;;;59.97;20.20;;;;;;;-0.86;56.63;99113.22;10453872;28;20425;-54
2021/01/07 18:03:11;;;;;;;58.10;21.02;;;;;;;-0.89;56.65;99113.34;10451907;28;20114;-55
2021/01/07 18:08:13;;;;;;;58.15;24.27;;;;;;;-0.88;56.84;99125.38;10456025;28;20044;-54
2021/01/07 18:13:15;;;;;;;56.83;20.15;;;;;;;-0.89;56.72;99121.09;10451457;28;20053;-54
2021/01/07 18:18:17;;;;;;;57.08;19.67;;;;;;;-0.83;57.15;99128.53;10453461;28;20049;-54
2021/01/07 18:23:19;;;;;;;42.85;15.07;;;;;;;-0.73;56.61;99120.31;10455126;28;20071;-53
2021/01/07 18:28:21;;;;;;;52.15;21.08;;;;;;;-0.78;56.68;99124.84;10455141;28;20516;-54
2021/01/07 18:33:24;;;;;;;53.22;20.92;;;;;;;-0.76;56.93;99127.38;10456114;28;20111;-53
2021/01/07 18:38:26;;;;;;;57.50;21.03;;;;;;;-0.69;56.66;99126.16;10456660;28;20101;-56
2021/01/07 18:43:28;;;;;;;55.65;22.05;;;;;;;-0.72;56.58;99126.28;10454971;28;20049;-55
2021/01/07 18:48:30;;;;;;;48.08;15.05;;;;;;;-0.75;56.50;99114.38;10457472;28;20060;-54
2021/01/07 18:53:32;;;;;;;45.28;16.60;;;;;;;-0.74;56.74;99102.28;10457434;28;20350;-54
2021/01/07 18:58:34;;;;;;;53.83;19.05;;;;;;;-0.67;56.76;99090.78;10456705;28;20049;-55
2021/01/07 19:03:36;;;;;;;44.22;17.23;;;;;;;-0.71;56.20;99079.78;10453922;28;20072;-54
2021/01/07 19:08:38;;;;;;;54.80;21.35;;;;;;;-0.88;57.01;99090.06;10452407;28;20049;-55
2021/01/07 19:13:40;;;;;;;46.58;17.45;;;;;;;-0.88;57.11;99091.81;10454500;28;20211;-54
2021/01/07 19:18:43;;;;;;;48.20;17.88;;;;;;;-0.97;57.08;99096.50;10455276;28;20118;-55
2021/01/07 19:23:44;;;;;;;36.03;13.83;;;;;;;-0.98;57.11;99092.25;10455869;28;20484;-56
2021/01/07 19:28:46;;;;;;;47.15;17.23;;;;;;;-0.88;56.77;99104.72;10455951;28;20041;-54
2021/01/07 19:33:49;;;;;;;43.70;18.17;;;;;;;-0.86;57.16;99097.72;10455780;28;20063;-59
2021/01/07 19:38:51;;;;;;;44.10;16.65;;;;;;;-0.90;57.23;99084.13;10455897;28;20056;-55
2021/01/07 19:43:55;;;;;;;43.50;18.52;;;;;;;-0.78;57.14;99077.56;10453165;28;20102;-54
2021/01/07 19:48:58;;;;;;;47.65;21.20;;;;;;;-0.64;57.06;99077.72;10452710;28;20051;-54
2021/01/07 19:54:00;;;;;;;45.28;19.92;;;;;;;-0.44;56.77;99068.16;10462463;28;20824;-53
2021/01/07 19:59:02;;;;;;;46.47;19.77;;;;;;;-0.36;56.89;99071.19;10462381;28;20049;-57
2021/01/07 20:04:05;;;;;;;43.53;17.83;;;;;;;-0.36;56.81;99060.84;10460390;28;20048;-54
2021/01/07 20:09:07;;;;;;;50.85;19.50;;;;;;;-0.27;56.23;99060.38;10461434;28;20094;-54
2021/01/07 20:14:08;;;;;;;50.30;19.05;;;;;;;-0.29;56.30;99062.19;10461272;28;20049;-54
2021/01/07 20:19:11;;;;;;;46.10;18.60;;;;;;;-0.32;56.66;99057.19;10459335;28;20063;-54
2021/01/07 20:24:12;;;;;;;51.67;18.30;;;;;;;-0.26;56.41;99067.22;10459262;28;20044;-54
2021/01/07 20:29:14;;;;;;;45.75;18.75;;;;;;;-0.15;56.20;99075.25;10458888;28;20044;-55
2021/01/07 20:34:17;;;;;;;44.72;19.00;;;;;;;-0.15;56.30;99057.19;10459422;28;20082;-54
2021/01/07 20:39:18;;;;;;;46.40;17.45;;;;;;;-0.09;56.22;99054.28;10460963;28;20386;-54
2021/01/07 20:44:20;;;;;;;39.50;16.30;;;;;;;-0.11;56.21;99050.94;10463081;28;20108;-61
2021/01/07 20:49:23;;;;;;;35.40;15.45;;;;;;;-0.19;56.39;99053.06;10460163;28;20115;-54
2021/01/07 20:54:25;;;;;;;43.45;15.48;;;;;;;-0.13;56.74;99045.00;10460665;28;20366;-55
2021/01/07 20:59:26;;;;;;;33.40;14.45;;;;;;;-0.03;56.78;99048.78;10460147;28;20057;-54
2021/01/07 21:04:30;;;;;;;38.67;14.57;;;;;;;-0.02;56.38;99034.13;10460348;28;20045;-54
2021/01/07 21:09:32;;;;;;;38.75;16.02;;;;;;;-0.06;56.17;99032.63;10459798;28;20436;-54
2021/01/07 21:14:34;;;;;;;45.40;15.40;;;;;;;-0.16;56.23;99037.41;10457174;28;20386;-53
2021/01/07 21:19:38;;;;;;;;;;;;;;;-0.22;56.72;99027.38;10456151;28;20052;-54
2021/01/07 21:24:41;;;;;;;42.63;16.35;;;;;;;-0.08;56.60;99022.34;10457254;28;19931;-54
2021/01/07 21:29:43;;;;;;;48.20;18.05;;;;;;;0.07;55.66;99019.88;10457060;28;20041;-54
2021/01/07 21:34:45;;;;;;;32.08;13.50;;;;;;;0.17;55.79;99019.28;10459242;28;20442;-55
2021/01/07 21:39:49;;;;;;;39.78;15.40;;;;;;;0.09;55.33;99015.44;10459245;28;20073;-54
2021/01/07 21:44:51;;;;;;;37.85;12.38;;;;;;;0.07;55.53;99007.78;10458434;28;20386;-55
2021/01/07 21:49:54;;;;;;;39.00;15.70;;;;;;;-0.04;55.75;99000.59;10457756;28;20053;-54
2021/01/07 21:54:56;;;;;;;39.05;16.73;;;;;;;-0.09;55.61;99000.03;10459010;28;20302;-54
2021/01/07 21:59:57;;;;;;;47.92;16.83;;;;;;;-0.07;55.59;99000.75;10459741;28;20136;-54
2021/01/07 22:05:00;;;;;;;43.70;16.10;;;;;;;-0.17;55.87;98991.81;10459018;28;20106;-54
2021/01/07 22:10:03;;;;;;;47.92;18.02;;;;;;;-0.22;56.48;99004.13;10456572;28;20067;-54
2021/01/07 22:15:06;;;;;;;34.35;14.80;;;;;;;-0.15;56.14;98990.00;10454689;28;20501;-54
2021/01/07 22:20:10;;;;;;;45.05;17.00;;;;;;;-0.25;55.97;98981.91;10455037;28;20101;-54
2021/01/07 22:25:11;;;;;;;39.90;16.58;;;;;;;-0.29;56.45;98979.56;10456177;28;20502;-55
2021/01/07 22:30:14;;;;;;;52.03;19.35;;;;;;;-0.19;56.18;98985.06;10454118;28;20049;-54
2021/01/07 22:35:17;;;;;;;48.97;19.17;;;;;;;-0.19;55.93;98967.81;10454846;28;20044;-54
2021/01/07 22:40:19;;;;;;;45.25;18.98;;;;;;;-0.18;56.21;98968.69;10455010;28;20155;-55
2021/01/07 22:45:20;;;;;;;41.80;13.02;;;;;;;-0.18;55.75;98961.75;10453126;28;20045;-54
2021/01/07 22:50:23;;;;;;;40.85;16.45;;;;;;;-0.23;55.90;98961.16;10454952;28;20049;-54
2021/01/07 22:55:25;;;;;;;36.88;13.75;;;;;;;-0.26;55.79;98961.31;10456500;28;20065;-56
2021/01/07 23:00:26;;;;;;;35.22;13.55;;;;;;;-0.33;56.15;98952.22;10456262;28;20053;-55
2021/01/07 23:05:29;;;;;;;40.40;17.63;;;;;;;-0.38;56.40;98943.88;10456166;28;20497;-54